createdAt,value
2019-03-18T00:02:24.113Z,4.97
2019-03-18T00:04:51.413Z,5.20
2019-03-18T00:07:18.703Z,4.95
2019-03-18T00:09:46.003Z,4.78
2019-03-18T00:12:13.287Z,4.42
2019-03-18T00:14:40.561Z,4.67
2019-03-18T00:17:07.853Z,4.80
2019-03-18T00:19:35.142Z,5.40
2019-03-18T00:22:02.405Z,5.83
2019-03-18T00:24:29.764Z,5.67
2019-03-18T00:26:58.085Z,6.37
2019-03-18T00:29:25.397Z,6.15
2019-03-18T00:31:52.747Z,5.53
2019-03-18T00:34:20.036Z,5.75
2019-03-18T00:36:47.387Z,6.30
2019-03-18T00:39:14.699Z,5.80
2019-03-18T00:41:42.001Z,6.40
2019-03-18T00:44:09.493Z,6.75
2019-03-18T00:46:36.809Z,6.50
2019-03-18T00:49:04.093Z,6.97
2019-03-18T00:51:31.454Z,7.47
2019-03-18T00:53:58.747Z,7.00
2019-03-18T00:56:26.087Z,7.85
2019-03-18T00:58:59.275Z,7.33
2019-03-18T01:01:27.635Z,8.33
2019-03-18T01:03:54.918Z,8.38
2019-03-18T01:06:22.207Z,7.47
2019-03-18T01:08:49.577Z,10.88
2019-03-18T01:11:16.927Z,8.63
2019-03-18T01:13:44.320Z,7.92
2019-03-18T01:16:11.600Z,8.40
2019-03-18T01:18:38.914Z,8.90
2019-03-18T01:21:06.208Z,9.00
2019-03-18T01:23:33.604Z,8.35
2019-03-18T01:26:00.900Z,8.25
2019-03-18T01:28:28.218Z,8.68
2019-03-18T01:30:55.572Z,8.45
2019-03-18T01:33:23.023Z,8.70
2019-03-18T01:35:50.400Z,8.75
2019-03-18T01:38:17.668Z,7.85
2019-03-18T01:40:44.972Z,9.23
2019-03-18T01:43:12.282Z,7.80
2019-03-18T01:45:41.053Z,8.38
2019-03-18T01:48:08.686Z,8.08
2019-03-18T01:50:35.977Z,7.80
2019-03-18T01:53:03.322Z,8.15
2019-03-18T01:55:30.702Z,9.10
2019-03-18T01:57:58.056Z,8.15
2019-03-18T02:00:25.348Z,8.25
2019-03-18T02:02:52.628Z,8.80
2019-03-18T02:05:19.940Z,8.78
2019-03-18T02:07:47.354Z,8.75
2019-03-18T02:10:16.222Z,9.10
2019-03-18T02:12:43.516Z,9.43
2019-03-18T02:15:16.647Z,8.00
2019-03-18T02:17:43.975Z,7.37
2019-03-18T02:20:12.232Z,7.60
2019-03-18T02:22:39.537Z,8.20
2019-03-18T02:25:07.612Z,7.85
2019-03-18T02:27:35.032Z,8.38
2019-03-18T02:30:02.456Z,7.83
2019-03-18T02:32:29.827Z,8.88
2019-03-18T02:34:57.182Z,7.95
2019-03-18T02:37:24.530Z,8.18
2019-03-18T02:39:51.887Z,7.80
2019-03-18T02:42:19.189Z,8.33
2019-03-18T02:44:46.493Z,9.50
2019-03-18T02:47:13.802Z,9.35
2019-03-18T02:49:41.163Z,9.18
2019-03-18T02:52:08.444Z,9.80
2019-03-18T02:54:35.799Z,8.25
2019-03-18T02:57:03.357Z,8.63
2019-03-18T02:59:30.678Z,8.75
2019-03-18T03:01:58.047Z,9.23
2019-03-18T03:04:25.411Z,8.93
2019-03-18T03:06:52.775Z,9.38
2019-03-18T03:09:20.169Z,9.30
2019-03-18T03:11:47.469Z,9.48
2019-03-18T03:14:14.770Z,9.58
2019-03-18T03:16:42.172Z,9.13
2019-03-18T03:19:09.447Z,9.48
2019-03-18T03:21:36.744Z,8.73
2019-03-18T03:24:04.041Z,8.78
2019-03-18T03:26:31.418Z,9.63
2019-03-18T03:28:58.810Z,8.43
2019-03-18T03:31:26.277Z,8.98
2019-03-18T03:33:53.618Z,8.03
2019-03-18T03:36:20.981Z,8.58
2019-03-18T03:38:48.322Z,8.20
2019-03-18T03:41:17.899Z,7.95
2019-03-18T03:43:44.709Z,8.55
2019-03-18T03:46:12.103Z,8.98
2019-03-18T03:48:39.388Z,7.50
2019-03-18T03:51:09.463Z,9.05
2019-03-18T03:53:36.963Z,8.20
2019-03-18T03:56:04.418Z,8.50
2019-03-18T03:58:32.392Z,8.50
2019-03-18T04:00:59.847Z,8.43
2019-03-18T04:03:38.108Z,8.60
2019-03-18T04:05:56.239Z,7.87
2019-03-18T04:08:23.641Z,8.88
2019-03-18T04:10:51.089Z,8.10
2019-03-18T04:13:18.454Z,8.43
2019-03-18T04:15:45.815Z,8.60
2019-03-18T04:18:13.181Z,8.50
2019-03-18T04:20:40.489Z,8.20
2019-03-18T04:23:07.788Z,8.65
2019-03-18T04:25:35.146Z,8.40
2019-03-18T04:28:02.437Z,7.90
2019-03-18T04:30:29.719Z,8.18
2019-03-18T04:32:57.075Z,7.60
2019-03-18T04:35:24.356Z,8.75
2019-03-18T04:37:51.687Z,8.50
2019-03-18T04:40:18.989Z,8.85
2019-03-18T04:42:46.265Z,8.00
2019-03-18T04:45:13.542Z,7.37
2019-03-18T04:47:40.835Z,7.87
2019-03-18T04:50:09.611Z,7.53
2019-03-18T04:52:36.913Z,7.90
2019-03-18T04:55:09.190Z,8.03
2019-03-18T04:57:36.519Z,7.78
2019-03-18T05:00:08.049Z,7.90
2019-03-18T05:02:35.379Z,8.33
2019-03-18T05:05:02.705Z,9.78
2019-03-18T05:07:29.979Z,7.55
2019-03-18T05:09:57.303Z,9.15
2019-03-18T05:12:24.595Z,8.10
2019-03-18T05:14:51.886Z,8.05
2019-03-18T05:17:26.637Z,8.70
2019-03-18T05:19:48.201Z,9.10
2019-03-18T05:22:15.576Z,7.95
2019-03-18T05:24:42.881Z,8.98
2019-03-18T05:27:10.804Z,8.78
2019-03-18T05:29:38.262Z,8.33
2019-03-18T05:32:05.626Z,9.60
2019-03-18T05:37:00.896Z,9.10
2019-03-18T05:39:28.184Z,8.63
2019-03-18T05:41:55.498Z,8.33
2019-03-18T05:44:22.809Z,9.43
2019-03-18T05:49:37.369Z,8.60
2019-03-18T05:52:04.733Z,9.80
2019-03-18T05:55:03.388Z,10.00
2019-03-18T05:57:20.654Z,10.05
2019-03-18T05:59:47.926Z,9.53
2019-03-18T06:02:15.212Z,10.10
2019-03-18T06:04:42.500Z,10.58
2019-03-18T06:07:09.792Z,10.25
2019-03-18T06:09:37.104Z,10.88
2019-03-18T06:12:04.368Z,9.68
2019-03-18T06:14:31.662Z,9.50
2019-03-18T06:16:58.936Z,9.20
2019-03-18T06:19:26.239Z,8.98
2019-03-18T06:21:53.513Z,9.60
2019-03-18T06:24:20.811Z,9.85
2019-03-18T06:26:48.104Z,8.60
2019-03-18T06:29:15.416Z,10.38
2019-03-18T06:32:02.046Z,7.80
2019-03-18T06:34:29.376Z,10.25
2019-03-18T06:36:56.680Z,9.23
2019-03-18T06:39:24.034Z,8.30
2019-03-18T06:41:51.472Z,8.75
2019-03-18T06:44:18.783Z,8.30
2019-03-18T06:46:46.072Z,8.05
2019-03-18T06:49:13.388Z,16.45
2019-03-18T06:51:40.776Z,8.65
2019-03-18T06:54:08.078Z,10.78
2019-03-18T06:56:35.374Z,8.35
2019-03-18T06:59:02.788Z,7.78
2019-03-18T07:01:30.113Z,8.70
2019-03-18T07:03:57.433Z,8.03
2019-03-18T07:06:24.721Z,7.97
2019-03-18T07:08:52.153Z,10.15
2019-03-18T07:11:19.514Z,7.45
2019-03-18T07:13:46.809Z,8.48
2019-03-18T07:16:14.092Z,7.10
2019-03-18T07:18:41.381Z,6.65
2019-03-18T07:21:08.662Z,7.42
2019-03-18T07:23:36.001Z,10.08
2019-03-18T07:26:03.428Z,7.40
2019-03-18T07:28:30.816Z,7.20
2019-03-18T07:30:58.110Z,7.20
2019-03-18T07:33:25.407Z,10.15
2019-03-18T07:35:52.714Z,7.35
2019-03-18T07:38:20.128Z,8.10
2019-03-18T07:40:47.471Z,7.05
2019-03-18T07:43:14.824Z,7.78
2019-03-18T07:45:42.108Z,7.50
2019-03-18T07:48:12.382Z,12.88
2019-03-18T07:50:38.423Z,8.23
2019-03-18T07:53:05.845Z,8.63
2019-03-18T07:55:33.155Z,21.25
2019-03-18T07:58:00.433Z,8.18
2019-03-18T08:00:27.829Z,6.62
2019-03-18T08:02:55.175Z,7.80
2019-03-18T08:05:22.477Z,8.25
2019-03-18T08:07:49.780Z,6.22
2019-03-18T08:10:17.167Z,7.50
2019-03-18T08:12:44.542Z,6.62
2019-03-18T08:15:32.746Z,5.55
2019-03-18T08:18:00.019Z,5.90
2019-03-18T08:20:27.375Z,5.95
2019-03-18T08:22:54.686Z,6.58
2019-03-18T08:25:22.038Z,4.85
2019-03-18T08:27:49.405Z,5.90
2019-03-18T08:33:10.366Z,6.05
2019-03-18T08:35:57.165Z,6.12
2019-03-18T08:38:24.490Z,6.17
2019-03-18T08:40:51.789Z,6.40
2019-03-18T08:43:19.142Z,6.17
2019-03-18T08:45:46.440Z,5.65
2019-03-18T08:48:13.763Z,6.50
2019-03-18T08:50:41.097Z,6.25
2019-03-18T08:53:08.415Z,5.17
2019-03-18T08:55:35.835Z,5.87
2019-03-18T08:58:03.142Z,5.15
2019-03-18T09:00:30.470Z,5.00
2019-03-18T09:02:57.767Z,5.80
2019-03-18T09:05:25.131Z,5.27
2019-03-18T09:07:52.581Z,5.40
2019-03-18T09:10:19.851Z,5.80
2019-03-18T09:12:47.200Z,5.70
2019-03-18T09:15:14.633Z,5.50
2019-03-18T09:17:42.005Z,4.67
2019-03-18T09:28:30.788Z,4.40
2019-03-18T09:30:58.073Z,4.95
2019-03-18T09:33:25.356Z,4.75
2019-03-18T09:35:52.678Z,5.10
2019-03-18T09:38:19.984Z,4.97
2019-03-18T09:40:48.340Z,4.73
2019-03-18T09:46:31.114Z,4.90
2019-03-18T09:48:58.422Z,4.90
2019-03-18T09:51:25.728Z,4.90
2019-03-18T09:56:48.320Z,4.12
2019-03-18T09:59:15.608Z,4.30
2019-03-18T10:01:44.542Z,4.37
2019-03-18T10:04:11.884Z,4.28
2019-03-18T10:09:46.866Z,4.15
2019-03-18T10:12:14.164Z,4.93
2019-03-18T10:14:41.446Z,4.77
2019-03-18T10:17:10.135Z,4.72
2019-03-18T10:19:57.243Z,4.35
2019-03-18T10:22:24.542Z,4.33
2019-03-18T10:24:51.830Z,5.30
2019-03-18T10:27:19.299Z,5.30
2019-03-18T10:29:46.700Z,5.77
2019-03-18T10:32:13.992Z,4.73
2019-03-18T10:37:36.773Z,3.25
2019-03-18T10:42:59.533Z,3.00
2019-03-18T10:45:26.884Z,3.00
2019-03-18T10:47:55.015Z,3.02
2019-03-18T10:50:23.188Z,3.08
2019-03-18T10:52:50.535Z,3.10
2019-03-18T10:55:17.815Z,4.47
2019-03-18T10:57:45.190Z,6.80
2019-03-18T11:00:13.676Z,4.03
2019-03-18T11:05:42.759Z,3.22
2019-03-18T11:08:10.210Z,3.58
2019-03-18T11:10:37.481Z,2.83
2019-03-18T11:13:04.840Z,5.15
2019-03-18T11:15:32.125Z,3.92
2019-03-18T11:17:59.472Z,3.60
2019-03-18T11:20:26.921Z,2.75
2019-03-18T11:22:54.336Z,2.00
2019-03-18T11:25:21.622Z,3.30
2019-03-18T11:27:48.930Z,2.60
2019-03-18T11:36:00.430Z,3.20
2019-03-18T11:38:27.748Z,3.20
2019-03-18T11:40:55.135Z,4.70
2019-03-18T11:43:22.449Z,3.10
2019-03-18T11:45:49.768Z,3.80
2019-03-18T11:48:17.121Z,4.10
2019-03-18T12:12:54.689Z,3.47
2019-03-18T12:18:17.360Z,3.95
2019-03-18T12:20:44.791Z,3.27
2019-03-18T12:40:20.074Z,3.05
2019-03-18T12:42:56.985Z,3.10
2019-03-18T12:45:24.338Z,2.90
2019-03-18T12:47:51.689Z,3.00
2019-03-18T12:59:20.751Z,3.20
2019-03-18T13:01:48.133Z,2.98
2019-03-18T13:04:15.471Z,2.98
2019-03-18T13:06:42.757Z,3.00
2019-03-18T13:09:10.055Z,2.37
2019-03-18T13:11:37.453Z,2.20
2019-03-18T13:14:24.235Z,2.00
2019-03-18T13:16:33.984Z,2.83
2019-03-18T13:19:01.258Z,2.35
2019-03-18T13:21:30.874Z,2.75
2019-03-18T13:23:57.695Z,2.47
2019-03-18T13:26:25.141Z,2.90
2019-03-18T13:28:52.635Z,2.55
2019-03-18T13:31:19.927Z,2.20
2019-03-18T13:33:47.357Z,2.83
2019-03-18T13:36:14.675Z,2.25
2019-03-18T13:38:42.008Z,2.50
2019-03-18T13:41:09.396Z,2.40
2019-03-18T13:43:36.729Z,3.30
2019-03-18T13:46:04.093Z,2.95
2019-03-18T13:48:31.526Z,2.67
2019-03-18T13:50:58.923Z,2.52
2019-03-18T13:53:27.198Z,3.85
2019-03-18T13:55:54.610Z,2.65
2019-03-18T13:58:21.975Z,4.78
2019-03-18T14:22:47.852Z,5.10
2019-03-18T14:25:15.148Z,3.00
2019-03-18T14:27:42.512Z,3.40
2019-03-18T14:43:53.513Z,3.20
2019-03-18T14:46:20.897Z,3.20
2019-03-18T14:48:48.176Z,4.87
2019-03-18T14:51:15.534Z,3.45
2019-03-18T14:53:42.846Z,3.45
2019-03-18T14:56:10.198Z,2.75
2019-03-18T14:58:37.486Z,3.02
2019-03-18T15:01:05.179Z,2.10
2019-03-18T15:03:32.468Z,3.10
2019-03-18T15:05:59.847Z,2.30
2019-03-18T15:08:27.151Z,3.77
2019-03-18T15:10:54.451Z,2.22
2019-03-18T15:13:30.909Z,1.77
2019-03-18T15:15:50.754Z,2.05
2019-03-18T15:18:37.366Z,1.80
2019-03-18T15:21:04.643Z,2.17
2019-03-18T15:23:31.933Z,3.02
2019-03-18T15:25:59.371Z,2.20
2019-03-18T15:28:26.677Z,2.50
2019-03-18T15:30:53.986Z,2.77
2019-03-18T15:33:21.487Z,2.52
2019-03-18T15:35:48.831Z,2.65
2019-03-18T15:39:33.011Z,2.80
2019-03-18T15:40:48.203Z,2.70
2019-03-18T15:43:15.507Z,2.80
2019-03-18T15:45:42.887Z,2.62
2019-03-18T15:48:10.261Z,3.25
2019-03-18T15:50:37.549Z,2.50
2019-03-18T15:53:04.929Z,3.00
2019-03-18T15:55:32.302Z,2.52
2019-03-18T15:57:59.593Z,2.67
2019-03-18T16:03:20.225Z,3.27
2019-03-18T16:05:47.609Z,4.20
2019-03-18T16:08:34.239Z,3.87
2019-03-18T16:11:01.539Z,3.47
2019-03-18T16:13:28.825Z,2.70
2019-03-18T16:15:56.110Z,3.10
2019-03-18T16:18:23.459Z,4.00
2019-03-18T16:20:50.811Z,4.40
2019-03-18T16:23:18.083Z,3.70
2019-03-18T16:25:45.366Z,3.50
2019-03-18T16:28:32.005Z,4.22
2019-03-18T16:30:59.343Z,3.92
2019-03-18T16:33:26.646Z,3.40
2019-03-18T16:35:54.043Z,7.65
2019-03-18T16:38:21.402Z,4.00
2019-03-18T16:40:48.771Z,8.60
2019-03-18T16:43:16.102Z,10.08
2019-03-18T16:46:02.740Z,3.85
2019-03-18T16:48:30.054Z,3.80
2019-03-18T16:50:57.405Z,3.85
2019-03-18T16:53:24.694Z,3.25
2019-03-18T16:55:51.983Z,2.87
2019-03-18T16:58:19.415Z,3.20
2019-03-18T17:00:46.698Z,3.70
2019-03-18T17:03:14.071Z,3.22
2019-03-18T17:05:41.354Z,2.98
2019-03-18T17:08:08.637Z,3.08
2019-03-18T17:10:36.001Z,2.95
2019-03-18T17:13:03.314Z,3.05
2019-03-18T17:15:50.086Z,2.95
2019-03-18T17:18:18.166Z,3.55
2019-03-18T17:20:46.394Z,3.30
2019-03-18T17:23:13.763Z,3.00
2019-03-18T17:25:41.081Z,3.25
2019-03-18T17:28:08.451Z,3.67
2019-03-18T17:30:42.786Z,4.08
2019-03-18T17:33:38.445Z,2.83
2019-03-18T17:39:35.211Z,3.70
2019-03-18T17:42:23.651Z,3.02
2019-03-18T17:45:12.320Z,3.20
2019-03-18T17:47:39.655Z,2.80
2019-03-18T17:56:08.205Z,3.02
2019-03-18T17:58:54.950Z,4.15
2019-03-18T18:01:22.467Z,4.45
2019-03-18T18:03:49.765Z,4.03
2019-03-18T18:06:17.110Z,4.08
2019-03-18T18:08:44.499Z,3.80
2019-03-18T18:11:11.855Z,4.90
2019-03-18T18:13:39.199Z,4.65
2019-03-18T18:16:06.484Z,4.10
2019-03-18T18:18:33.807Z,4.45
2019-03-18T18:21:01.123Z,5.92
2019-03-18T18:23:28.588Z,4.17
2019-03-18T18:25:55.882Z,3.80
2019-03-18T18:28:23.177Z,3.37
2019-03-18T18:30:50.529Z,4.30
2019-03-18T18:33:17.976Z,3.20
2019-03-18T18:36:04.608Z,3.80
2019-03-18T18:38:31.918Z,3.30
2019-03-18T18:40:59.203Z,4.53
2019-03-18T18:43:26.600Z,3.77
2019-03-18T18:45:54.092Z,3.10
2019-03-18T18:48:21.416Z,4.17
2019-03-18T18:51:08.044Z,4.25
2019-03-18T18:53:35.342Z,3.55
2019-03-18T18:56:02.693Z,5.47
2019-03-18T18:58:49.431Z,3.20
2019-03-18T19:04:53.407Z,3.67
2019-03-18T19:07:20.892Z,4.37
2019-03-18T19:09:48.289Z,4.72
2019-03-18T19:12:15.558Z,3.90
2019-03-18T19:14:42.864Z,4.90
2019-03-18T19:17:10.246Z,3.98
2019-03-18T19:19:37.521Z,3.42
2019-03-18T19:22:24.503Z,3.40
2019-03-18T19:24:51.837Z,4.60
2019-03-18T19:27:19.148Z,3.77
2019-03-18T19:29:46.494Z,4.75
2019-03-18T19:32:13.792Z,4.45
2019-03-18T19:34:42.358Z,3.80
2019-03-18T19:37:09.708Z,4.00
2019-03-18T19:39:37.080Z,3.20
2019-03-18T19:42:04.466Z,4.17
2019-03-18T19:44:31.905Z,6.58
2019-03-18T19:46:59.449Z,7.45
2019-03-18T19:49:26.788Z,6.37
2019-03-18T19:51:54.084Z,6.97
2019-03-18T19:54:21.505Z,6.05
2019-03-18T19:59:37.249Z,5.08
2019-03-18T20:02:04.576Z,5.28
2019-03-18T20:04:31.880Z,6.05
2019-03-18T20:06:59.156Z,5.72
2019-03-18T20:09:26.469Z,7.95
2019-03-18T20:11:53.740Z,6.20
2019-03-18T20:14:21.111Z,4.95
2019-03-18T20:16:48.434Z,3.65
2019-03-18T20:19:15.901Z,4.85
2019-03-18T20:21:43.437Z,4.40
2019-03-18T20:24:10.771Z,6.53
2019-03-18T20:26:38.089Z,3.80
2019-03-18T20:29:05.398Z,4.15
2019-03-18T20:34:07.819Z,3.33
2019-03-18T20:36:43.266Z,4.10
2019-03-18T20:39:10.755Z,5.47
2019-03-18T20:41:38.031Z,5.05
2019-03-18T20:44:05.338Z,3.35
2019-03-18T20:46:32.958Z,3.45
2019-03-18T20:49:00.599Z,3.45
2019-03-18T20:51:27.950Z,3.30
2019-03-18T20:53:55.310Z,3.72
2019-03-18T20:56:22.601Z,3.12
2019-03-18T20:58:49.924Z,3.15
2019-03-18T21:01:17.334Z,3.22
2019-03-18T21:03:44.947Z,3.47
2019-03-18T21:06:12.275Z,3.30
2019-03-18T21:08:39.660Z,3.58
2019-03-18T21:11:06.973Z,2.98
2019-03-18T21:13:34.393Z,2.67
2019-03-18T21:16:01.741Z,3.90
2019-03-18T21:18:29.054Z,3.22
2019-03-18T21:20:56.456Z,3.05
2019-03-18T21:23:23.760Z,3.27
2019-03-18T21:25:51.050Z,3.80
2019-03-18T21:28:18.409Z,3.77
2019-03-18T21:30:45.685Z,3.83
2019-03-18T21:33:13.042Z,3.33
2019-03-18T21:35:40.443Z,3.85
2019-03-18T21:38:07.850Z,3.80
2019-03-18T21:40:35.141Z,2.60
2019-03-18T21:43:02.435Z,4.15
2019-03-18T21:45:29.772Z,3.00
2019-03-18T21:47:57.071Z,3.52
2019-03-18T21:50:24.427Z,3.50
2019-03-18T21:52:51.810Z,3.50
2019-03-18T21:55:19.230Z,2.95
2019-03-18T21:57:46.668Z,2.83
2019-03-18T22:00:33.372Z,3.02
2019-03-18T22:03:00.772Z,3.60
2019-03-18T22:05:28.161Z,3.87
2019-03-18T22:07:55.451Z,3.47
2019-03-18T22:10:22.740Z,3.37
2019-03-18T22:12:50.175Z,3.55
2019-03-18T22:15:17.637Z,3.60
2019-03-18T22:17:45.017Z,4.00
2019-03-18T22:20:31.655Z,4.45
2019-03-18T22:22:58.953Z,3.55
2019-03-18T22:25:26.256Z,3.58
2019-03-18T22:27:53.608Z,3.17
2019-03-18T22:30:20.900Z,3.72
2019-03-18T22:32:48.254Z,3.80
2019-03-18T22:35:15.623Z,3.95
2019-03-18T22:37:43.033Z,4.65
2019-03-18T22:43:17.739Z,4.35
2019-03-18T22:45:45.090Z,4.37
2019-03-18T22:48:12.455Z,6.22
2019-03-18T22:50:39.819Z,5.58
2019-03-18T22:53:07.101Z,4.22
2019-03-18T22:55:34.402Z,8.00
2019-03-18T22:58:01.687Z,5.97
2019-03-18T23:00:48.315Z,4.50
2019-03-18T23:03:15.795Z,5.55
2019-03-18T23:05:43.083Z,4.92
2019-03-18T23:08:10.373Z,3.65
2019-03-18T23:10:37.658Z,5.17
2019-03-18T23:13:04.958Z,4.45
2019-03-18T23:18:39.581Z,3.50
2019-03-18T23:21:06.872Z,3.20
2019-03-18T23:23:34.259Z,3.95
2019-03-18T23:26:01.532Z,3.40
2019-03-18T23:28:28.819Z,3.70
2019-03-18T23:30:56.090Z,3.17
2019-03-18T23:33:23.486Z,4.05
2019-03-18T23:35:50.751Z,3.65
2019-03-18T23:40:54.084Z,4.87
2019-03-18T23:43:21.610Z,3.50
2019-03-18T23:45:49.043Z,3.60
2019-03-18T23:48:16.627Z,4.15
2019-03-18T23:50:44.016Z,3.80
2019-03-18T23:53:11.543Z,3.52
2019-03-18T23:55:38.893Z,4.50
2019-03-18T23:58:06.219Z,3.27
